PWSweather.com
Personal Weather Stations
Station Observations
MAGOO
Kiefer, OK 74041

Kiefer, OK 74041

Lat: 35.9417305, Lon: -96.03782654

Elevation: 699

Station Type: WMR100N

Latest ConditionsUpdated 2:00:00 PM CST Wednesday, Feb 10, 2016
Currently Today's Max Today's Min Today's Average
Temperature 63.9°F17.7°C 63.9°F17.7°C 23.4°F-4.8°C 33.2°F0.7°C
Dew Point 1.4°F-17.0°C 2.4°F-16.4°C -14.9°F-26.1°C -10.3°F-23.5°C
Winds 6.1 mph SSW9.8 kmh SSW 8.6 mph S13.8 kmh S - 3.5 mph 5.6 kmh
Wind Gusts 13.0 mph20.9 kmh 19.0 mph30.6 kmh - -
Humidity 8% 17% 8% 15%
Pressure 29.98 in1015.2 mb 30.34 in1027.4 mb 29.98 in1015.2 mb -
Hour Temp Dew Point Humidity Winds Wind Gusts Pressure Precip Precip Rate Daily Precip Total
02:00 PM 63.9°F17.7°C 1.4°F-17.0°C 8% 6.1 mph SSW9.8 kmh SSW 13.0 mph20.9 kmh 29.98 in1015.2 mb 0.00 in0.0 mm 0.00 in0.0 mm 0.00 in0.0 mm
01:55 PM 63.3°F17.4°C 1.0°F-17.2°C 8% 8.3 mph SW13.4 kmh SW 13.6 mph21.9 kmh 29.98 in1015.2 mb 0.00 in0.0 mm 0.00 in0.0 mm 0.00 in0.0 mm
01:50 PM 63.5°F17.5°C 1.1°F-17.2°C 8% 6.8 mph SW10.9 kmh SW 17.0 mph27.4 kmh 29.98 in1015.2 mb 0.00 in0.0 mm 0.00 in0.0 mm 0.00 in0.0 mm
01:45 PM 62.7°F17.1°C 1.4°F-17.0°C 8% 6.4 mph S10.3 kmh S 13.2 mph21.2 kmh 30.00 in1015.9 mb 0.00 in0.0 mm 0.00 in0.0 mm 0.00 in0.0 mm
01:40 PM 61.8°F16.6°C 2.4°F-16.4°C 9% 6.3 mph SSW10.1 kmh SSW 12.1 mph19.5 kmh 30.01 in1016.3 mb 0.00 in0.0 mm 0.00 in0.0 mm 0.00 in0.0 mm
01:35 PM 61.4°F16.3°C 2.1°F-16.6°C 9% 6.5 mph SSW10.5 kmh SSW 10.7 mph17.2 kmh 30.01 in1016.3 mb 0.00 in0.0 mm 0.00 in0.0 mm 0.00 in0.0 mm
01:30 PM 61.0°F16.1°C 1.8°F-16.8°C 9% 6.9 mph S11.1 kmh S 12.5 mph20.1 kmh 30.01 in1016.3 mb 0.00 in0.0 mm 0.00 in0.0 mm 0.00 in0.0 mm
01:25 PM 60.6°F15.9°C 1.5°F-16.9°C 9% 5.8 mph SSW9.3 kmh SSW 10.5 mph16.9 kmh 30.01 in1016.3 mb 0.00 in0.0 mm 0.00 in0.0 mm 0.00 in0.0 mm
01:20 PM 60.1°F15.6°C 1.2°F-17.1°C 9% 6.3 mph S10.1 kmh S 14.8 mph23.8 kmh 30.02 in1016.6 mb 0.00 in0.0 mm 0.00 in0.0 mm 0.00 in0.0 mm
01:15 PM 59.4°F15.2°C 0.6°F-17.4°C 9% 6.9 mph S11.1 kmh S 12.3 mph19.8 kmh 30.03 in1016.9 mb 0.00 in0.0 mm 0.00 in0.0 mm 0.00 in0.0 mm
01:10 PM 58.7°F14.8°C 0.1°F-17.7°C 9% 7.3 mph SSW11.7 kmh SSW 13.0 mph20.9 kmh 30.05 in1017.6 mb 0.00 in0.0 mm 0.00 in0.0 mm 0.00 in0.0 mm
01:05 PM 58.3°F14.6°C -0.2°F-17.9°C 9% 6.4 mph SSW10.3 kmh SSW 13.0 mph20.9 kmh 30.05 in1017.6 mb 0.00 in0.0 mm 0.00 in0.0 mm 0.00 in0.0 mm
01:00 PM 57.5°F14.2°C -0.9°F-18.3°C 9% 7.8 mph SW12.6 kmh SW 14.5 mph23.3 kmh 30.06 in1017.9 mb 0.00 in0.0 mm 0.00 in0.0 mm 0.00 in0.0 mm
12:55 PM 57.2°F14.0°C -0.7°F-18.2°C 9% 7.5 mph SW12.1 kmh SW 13.2 mph21.2 kmh 30.08 in1018.6 mb 0.00 in0.0 mm 0.00 in0.0 mm 0.00 in0.0 mm
12:50 PM 56.4°F13.6°C 0.6°F-17.4°C 10% 6.1 mph SW9.8 kmh SW 12.3 mph19.8 kmh 30.08 in1018.6 mb 0.00 in0.0 mm 0.00 in0.0 mm 0.00 in0.0 mm
12:45 PM 55.7°F13.2°C 0.0°F-17.8°C 10% 5.9 mph SSW9.5 kmh SSW 12.8 mph20.6 kmh 30.08 in1018.6 mb 0.00 in0.0 mm 0.00 in0.0 mm 0.00 in0.0 mm
12:40 PM 54.9°F12.7°C -0.6°F-18.1°C 10% 6.4 mph SSW10.3 kmh SSW 12.5 mph20.1 kmh 30.08 in1018.6 mb 0.00 in0.0 mm 0.00 in0.0 mm 0.00 in0.0 mm
12:35 PM 54.3°F12.4°C -1.0°F-18.3°C 10% 7.5 mph SW12.1 kmh SW 12.3 mph19.8 kmh 30.08 in1018.6 mb 0.00 in0.0 mm 0.00 in0.0 mm 0.00 in0.0 mm
12:30 PM 53.4°F11.9°C -0.5°F-18.1°C 11% 6.3 mph SSW10.1 kmh SSW 14.5 mph23.3 kmh 30.09 in1019.0 mb 0.00 in0.0 mm 0.00 in0.0 mm 0.00 in0.0 mm
12:25 PM 52.5°F11.4°C -0.4°F-18.0°C 11% 5.9 mph SW9.5 kmh SW 10.7 mph17.2 kmh 30.09 in1019.0 mb 0.00 in0.0 mm 0.00 in0.0 mm 0.00 in0.0 mm
12:20 PM 51.9°F11.1°C -0.9°F-18.3°C 11% 5.9 mph SSW9.5 kmh SSW 11.0 mph17.7 kmh 30.09 in1019.0 mb 0.00 in0.0 mm 0.00 in0.0 mm 0.00 in0.0 mm
12:15 PM 51.3°F10.7°C -1.4°F-18.6°C 11% 7.8 mph SSW12.6 kmh SSW 13.2 mph21.2 kmh 30.10 in1019.3 mb 0.00 in0.0 mm 0.00 in0.0 mm 0.00 in0.0 mm
12:10 PM 50.6°F10.3°C -1.9°F-18.8°C 11% 7.3 mph S11.7 kmh S 13.4 mph21.6 kmh 30.12 in1020.0 mb 0.00 in0.0 mm 0.00 in0.0 mm 0.00 in0.0 mm
12:05 PM 50.0°F10.0°C -2.4°F-19.1°C 11% 7.8 mph SSW12.6 kmh SSW 16.1 mph25.9 kmh 30.12 in1020.0 mb 0.00 in0.0 mm 0.00 in0.0 mm 0.00 in0.0 mm
12:00 PM 49.2°F9.6°C -3.0°F-19.4°C 11% 7.4 mph S11.9 kmh S 14.5 mph23.3 kmh 30.12 in1020.0 mb 0.00 in0.0 mm 0.00 in0.0 mm 0.00 in0.0 mm
11:55 AM 48.8°F9.3°C -3.4°F-19.7°C 11% 8.0 mph SW12.9 kmh SW 12.3 mph19.8 kmh 30.12 in1020.0 mb 0.00 in0.0 mm 0.00 in0.0 mm 0.00 in0.0 mm
11:50 AM 48.2°F9.0°C -3.0°F-19.4°C 11% 7.9 mph SSW12.7 kmh SSW 14.8 mph23.8 kmh 30.12 in1020.0 mb 0.00 in0.0 mm 0.00 in0.0 mm 0.00 in0.0 mm
11:45 AM 47.6°F8.7°C -2.5°F-19.2°C 12% 7.8 mph S12.6 kmh S 16.6 mph26.7 kmh 30.14 in1020.7 mb 0.00 in0.0 mm 0.00 in0.0 mm 0.00 in0.0 mm
11:40 AM 46.9°F8.3°C -3.0°F-19.4°C 12% 6.3 mph S10.1 kmh S 11.2 mph18.0 kmh 30.16 in1021.3 mb 0.00 in0.0 mm 0.00 in0.0 mm 0.00 in0.0 mm
11:35 AM 46.1°F7.8°C -3.6°F-19.8°C 12% 8.3 mph S13.4 kmh S 15.2 mph24.5 kmh 30.16 in1021.3 mb 0.00 in0.0 mm 0.00 in0.0 mm 0.00 in0.0 mm
11:30 AM 45.7°F7.6°C -3.9°F-19.9°C 12% 8.3 mph S13.4 kmh S 17.9 mph28.8 kmh 30.16 in1021.3 mb 0.00 in0.0 mm 0.00 in0.0 mm 0.00 in0.0 mm
11:25 AM 45.1°F7.3°C -4.4°F-20.2°C 12% 8.6 mph S13.8 kmh S 15.4 mph24.8 kmh 30.16 in1021.3 mb 0.00 in0.0 mm 0.00 in0.0 mm 0.00 in0.0 mm
11:20 AM 44.5°F6.9°C -4.3°F-20.2°C 12% 7.8 mph S12.6 kmh S 15.2 mph24.5 kmh 30.16 in1021.3 mb 0.00 in0.0 mm 0.00 in0.0 mm 0.00 in0.0 mm
11:15 AM 43.7°F6.5°C -3.9°F-19.9°C 13% 6.1 mph S9.8 kmh S 12.8 mph20.6 kmh 30.18 in1022.0 mb 0.00 in0.0 mm 0.00 in0.0 mm 0.00 in0.0 mm
11:10 AM 42.7°F5.9°C -4.7°F-20.4°C 13% 7.9 mph S12.7 kmh S 16.6 mph26.7 kmh 30.19 in1022.4 mb 0.00 in0.0 mm 0.00 in0.0 mm 0.00 in0.0 mm
11:05 AM 42.3°F5.7°C -5.0°F-20.6°C 13% 8.0 mph S12.9 kmh S 13.9 mph22.4 kmh 30.19 in1022.4 mb 0.00 in0.0 mm 0.00 in0.0 mm 0.00 in0.0 mm
11:00 AM 41.9°F5.5°C -5.3°F-20.7°C 13% 8.1 mph S13.0 kmh S 17.7 mph28.5 kmh 30.19 in1022.4 mb 0.00 in0.0 mm 0.00 in0.0 mm 0.00 in0.0 mm
10:55 AM 41.3°F5.2°C -5.7°F-20.9°C 13% 8.2 mph S13.2 kmh S 14.5 mph23.3 kmh 30.20 in1022.7 mb 0.00 in0.0 mm 0.00 in0.0 mm 0.00 in0.0 mm
10:50 AM 41.0°F5.0°C -6.0°F-21.1°C 13% 8.5 mph S13.7 kmh S 18.1 mph29.1 kmh 30.20 in1022.7 mb 0.00 in0.0 mm 0.00 in0.0 mm 0.00 in0.0 mm
10:45 AM 40.4°F4.7°C -6.5°F-21.4°C 13% 8.6 mph S13.8 kmh S 16.1 mph25.9 kmh 30.21 in1023.0 mb 0.00 in0.0 mm 0.00 in0.0 mm 0.00 in0.0 mm
10:40 AM 40.1°F4.5°C -6.7°F-21.5°C 13% 8.2 mph S13.2 kmh S 19.0 mph30.6 kmh 30.23 in1023.7 mb 0.00 in0.0 mm 0.00 in0.0 mm 0.00 in0.0 mm
10:35 AM 39.4°F4.1°C -7.1°F-21.7°C 13% 6.9 mph S11.1 kmh S 12.3 mph19.8 kmh 30.23 in1023.7 mb 0.00 in0.0 mm 0.00 in0.0 mm 0.00 in0.0 mm
10:30 AM 38.7°F3.7°C -6.3°F-21.3°C 14% 7.8 mph S12.6 kmh S 15.2 mph24.5 kmh 30.23 in1023.7 mb 0.00 in0.0 mm 0.00 in0.0 mm 0.00 in0.0 mm
10:25 AM 38.5°F3.6°C -6.5°F-21.4°C 14% 6.9 mph S11.1 kmh S 12.5 mph20.1 kmh 30.23 in1023.7 mb 0.00 in0.0 mm 0.00 in0.0 mm 0.00 in0.0 mm
10:20 AM 37.9°F3.3°C -6.9°F-21.6°C 14% 5.7 mph S9.2 kmh S 12.3 mph19.8 kmh 30.23 in1023.7 mb 0.00 in0.0 mm 0.00 in0.0 mm 0.00 in0.0 mm
10:15 AM 37.5°F3.1°C -7.3°F-21.8°C 14% 7.2 mph S11.6 kmh S 13.4 mph21.6 kmh 30.23 in1023.7 mb 0.00 in0.0 mm 0.00 in0.0 mm 0.00 in0.0 mm
10:10 AM 37.1°F2.8°C -7.6°F-22.0°C 14% 5.7 mph SSE9.2 kmh SSE 14.5 mph23.3 kmh 30.23 in1023.7 mb 0.00 in0.0 mm 0.00 in0.0 mm 0.00 in0.0 mm
10:05 AM 36.4°F2.4°C -8.2°F-22.3°C 14% 7.8 mph SSE12.6 kmh SSE 15.2 mph24.5 kmh 30.23 in1023.7 mb 0.00 in0.0 mm 0.00 in0.0 mm 0.00 in0.0 mm
10:00 AM 36.0°F2.2°C -8.5°F-22.5°C 14% 7.5 mph S12.1 kmh S 14.3 mph23.0 kmh 30.23 in1023.7 mb 0.00 in0.0 mm 0.00 in0.0 mm 0.00 in0.0 mm
09:55 AM 35.6°F2.0°C -8.6°F-22.6°C 14% 6.5 mph S10.5 kmh S 12.8 mph20.6 kmh 30.23 in1023.7 mb 0.00 in0.0 mm 0.00 in0.0 mm 0.00 in0.0 mm
09:50 AM 35.1°F1.7°C -7.8°F-22.1°C 15% 5.5 mph S8.9 kmh S 11.0 mph17.7 kmh 30.23 in1023.7 mb 0.00 in0.0 mm 0.00 in0.0 mm 0.00 in0.0 mm
09:45 AM 34.7°F1.5°C -8.2°F-22.3°C 15% 5.4 mph SSE8.7 kmh SSE 11.0 mph17.7 kmh 30.25 in1024.4 mb 0.00 in0.0 mm 0.00 in0.0 mm 0.00 in0.0 mm
09:40 AM 34.2°F1.2°C -8.5°F-22.5°C 15% 5.2 mph S8.4 kmh S 13.2 mph21.2 kmh 30.27 in1025.1 mb 0.00 in0.0 mm 0.00 in0.0 mm 0.00 in0.0 mm
09:35 AM 33.5°F0.8°C -9.1°F-22.8°C 15% 6.0 mph S9.7 kmh S 13.6 mph21.9 kmh 30.27 in1025.1 mb 0.00 in0.0 mm 0.00 in0.0 mm 0.00 in0.0 mm
09:30 AM 33.0°F0.6°C -9.5°F-23.1°C 15% 6.5 mph S10.5 kmh S 11.4 mph18.3 kmh 30.27 in1025.1 mb 0.00 in0.0 mm 0.00 in0.0 mm 0.00 in0.0 mm
09:25 AM 32.6°F0.3°C -9.8°F-23.2°C 15% 6.2 mph SSE10.0 kmh SSE 13.2 mph21.2 kmh 30.27 in1025.1 mb 0.00 in0.0 mm 0.00 in0.0 mm 0.00 in0.0 mm
09:20 AM 32.2°F0.1°C -10.2°F-23.4°C 15% 6.4 mph S10.3 kmh S 13.0 mph20.9 kmh 30.27 in1025.1 mb 0.00 in0.0 mm 0.00 in0.0 mm 0.00 in0.0 mm
09:15 AM 31.8°F-0.1°C -10.5°F-23.6°C 15% 4.7 mph S7.6 kmh S 9.8 mph15.8 kmh 30.27 in1025.1 mb 0.00 in0.0 mm 0.00 in0.0 mm 0.00 in0.0 mm
09:10 AM 31.3°F-0.4°C -10.8°F-23.8°C 15% 5.3 mph S8.5 kmh S 10.5 mph16.9 kmh 30.27 in1025.1 mb 0.00 in0.0 mm 0.00 in0.0 mm 0.00 in0.0 mm
09:05 AM 30.8°F-0.7°C -11.3°F-24.1°C 15% 3.7 mph S6.0 kmh S 8.1 mph13.0 kmh 30.27 in1025.1 mb 0.00 in0.0 mm 0.00 in0.0 mm 0.00 in0.0 mm
09:00 AM 30.3°F-0.9°C -11.8°F-24.3°C 15% 5.2 mph SSE8.4 kmh SSE 10.7 mph17.2 kmh 30.27 in1025.1 mb 0.00 in0.0 mm 0.00 in0.0 mm 0.00 in0.0 mm
08:55 AM 29.8°F-1.2°C -12.1°F-24.5°C 15% 5.6 mph SSE9.0 kmh SSE 12.1 mph19.5 kmh 30.27 in1025.1 mb 0.00 in0.0 mm 0.00 in0.0 mm 0.00 in0.0 mm
08:50 AM 29.4°F-1.4°C -12.5°F-24.7°C 15% 4.7 mph S7.6 kmh S 10.3 mph16.6 kmh 30.27 in1025.1 mb 0.00 in0.0 mm 0.00 in0.0 mm 0.00 in0.0 mm
08:45 AM 29.0°F-1.7°C -12.8°F-24.9°C 15% 4.2 mph SSE6.8 kmh SSE 10.1 mph16.3 kmh 30.27 in1025.1 mb 0.00 in0.0 mm 0.00 in0.0 mm 0.00 in0.0 mm
08:40 AM 28.5°F-1.9°C -12.9°F-24.9°C 15% 4.1 mph SE6.6 kmh SE 10.1 mph16.3 kmh 30.28 in1025.4 mb 0.00 in0.0 mm 0.00 in0.0 mm 0.00 in0.0 mm
08:35 AM 27.9°F-2.3°C -12.4°F-24.7°C 16% 3.2 mph S5.1 kmh S 7.8 mph12.6 kmh 30.28 in1025.4 mb 0.00 in0.0 mm 0.00 in0.0 mm 0.00 in0.0 mm
08:30 AM 27.5°F-2.5°C -12.7°F-24.8°C 16% 4.5 mph S7.2 kmh S 7.6 mph12.2 kmh 30.28 in1025.4 mb 0.00 in0.0 mm 0.00 in0.0 mm 0.00 in0.0 mm
08:25 AM 27.0°F-2.8°C -13.1°F-25.1°C 16% 3.0 mph S4.8 kmh S 10.1 mph16.3 kmh 30.28 in1025.4 mb 0.00 in0.0 mm 0.00 in0.0 mm 0.00 in0.0 mm
08:20 AM 26.6°F-3.0°C -13.5°F-25.3°C 16% 2.9 mph S4.7 kmh S 6.0 mph9.7 kmh 30.28 in1025.4 mb 0.00 in0.0 mm 0.00 in0.0 mm 0.00 in0.0 mm
08:15 AM 26.1°F-3.3°C -13.9°F-25.5°C 16% 2.4 mph S3.9 kmh S 7.2 mph11.6 kmh 30.28 in1025.4 mb 0.00 in0.0 mm 0.00 in0.0 mm 0.00 in0.0 mm
08:10 AM 25.7°F-3.5°C -14.2°F-25.7°C 16% 2.5 mph SSE4.0 kmh SSE 5.4 mph8.7 kmh 30.28 in1025.4 mb 0.00 in0.0 mm 0.00 in0.0 mm 0.00 in0.0 mm
08:05 AM 25.3°F-3.7°C -14.5°F-25.8°C 16% 2.0 mph SE3.2 kmh SE 4.3 mph6.9 kmh 30.28 in1025.4 mb 0.00 in0.0 mm 0.00 in0.0 mm 0.00 in0.0 mm
08:00 AM 24.9°F-3.9°C -14.4°F-25.8°C 16% 1.5 mph SSE2.4 kmh SSE 3.1 mph5.0 kmh 30.28 in1025.4 mb 0.00 in0.0 mm 0.00 in0.0 mm 0.00 in0.0 mm
07:55 AM 24.5°F-4.2°C -13.9°F-25.5°C 17% 1.8 mph SSE2.9 kmh SSE 3.4 mph5.5 kmh 30.28 in1025.4 mb 0.00 in0.0 mm 0.00 in0.0 mm 0.00 in0.0 mm
07:50 AM 24.3°F-4.3°C -14.2°F-25.7°C 17% 2.4 mph SE3.9 kmh SE 4.3 mph6.9 kmh 30.28 in1025.4 mb 0.00 in0.0 mm 0.00 in0.0 mm 0.00 in0.0 mm
07:45 AM 24.0°F-4.4°C -14.4°F-25.8°C 17% 1.7 mph S2.7 kmh S 3.6 mph5.8 kmh 30.28 in1025.4 mb 0.00 in0.0 mm 0.00 in0.0 mm 0.00 in0.0 mm
07:40 AM 23.7°F-4.6°C -14.6°F-25.9°C 17% 1.9 mph S3.1 kmh S 3.4 mph5.5 kmh 30.28 in1025.4 mb 0.00 in0.0 mm 0.00 in0.0 mm 0.00 in0.0 mm
07:35 AM 23.6°F-4.7°C -14.7°F-25.9°C 17% 2.3 mph SSE3.7 kmh SSE 4.3 mph6.9 kmh 30.28 in1025.4 mb 0.00 in0.0 mm 0.00 in0.0 mm 0.00 in0.0 mm
07:30 AM 23.5°F-4.7°C -14.8°F-26.0°C 17% 2.2 mph SSE3.5 kmh SSE 4.3 mph6.9 kmh 30.28 in1025.4 mb 0.00 in0.0 mm 0.00 in0.0 mm 0.00 in0.0 mm
07:25 AM 23.5°F-4.7°C -14.8°F-26.0°C 17% 2.5 mph SSE4.0 kmh SSE 4.7 mph7.6 kmh 30.28 in1025.4 mb 0.00 in0.0 mm 0.00 in0.0 mm 0.00 in0.0 mm
07:20 AM 23.4°F-4.8°C -14.9°F-26.1°C 17% 2.8 mph S4.5 kmh S 5.8 mph9.3 kmh 30.29 in1025.7 mb 0.00 in0.0 mm 0.00 in0.0 mm 0.00 in0.0 mm
07:15 AM 23.4°F-4.8°C -14.9°F-26.1°C 17% 2.3 mph SSE3.7 kmh SSE 4.7 mph7.6 kmh 30.29 in1025.7 mb 0.00 in0.0 mm 0.00 in0.0 mm 0.00 in0.0 mm
07:10 AM 23.5°F-4.7°C -14.8°F-26.0°C 17% 1.7 mph SE2.7 kmh SE 3.6 mph5.8 kmh 30.28 in1025.4 mb 0.00 in0.0 mm 0.00 in0.0 mm 0.00 in0.0 mm
07:05 AM 23.5°F-4.7°C -14.8°F-26.0°C 17% 2.4 mph SSE3.9 kmh SSE 4.0 mph6.4 kmh 30.28 in1025.4 mb 0.00 in0.0 mm 0.00 in0.0 mm 0.00 in0.0 mm
07:00 AM 23.5°F-4.7°C -14.8°F-26.0°C 17% 2.4 mph SSE3.9 kmh SSE 3.8 mph6.1 kmh 30.28 in1025.4 mb 0.00 in0.0 mm 0.00 in0.0 mm 0.00 in0.0 mm
06:55 AM 23.5°F-4.7°C -14.8°F-26.0°C 17% 2.2 mph S3.5 kmh S 4.3 mph6.9 kmh 30.28 in1025.4 mb 0.00 in0.0 mm 0.00 in0.0 mm 0.00 in0.0 mm
06:50 AM 23.5°F-4.7°C -14.8°F-26.0°C 17% 2.3 mph S3.7 kmh S 4.3 mph6.9 kmh 30.28 in1025.4 mb 0.00 in0.0 mm 0.00 in0.0 mm 0.00 in0.0 mm
06:45 AM 23.7°F-4.6°C -14.6°F-25.9°C 17% 2.0 mph S3.2 kmh S 4.0 mph6.4 kmh 30.28 in1025.4 mb 0.00 in0.0 mm 0.00 in0.0 mm 0.00 in0.0 mm
06:40 AM 23.8°F-4.6°C -14.6°F-25.9°C 17% 1.6 mph SSE2.6 kmh SSE 3.1 mph5.0 kmh 30.28 in1025.4 mb 0.00 in0.0 mm 0.00 in0.0 mm 0.00 in0.0 mm
06:35 AM 23.9°F-4.5°C -14.5°F-25.8°C 17% 1.4 mph SSE2.3 kmh SSE 2.5 mph4.0 kmh 30.28 in1025.4 mb 0.00 in0.0 mm 0.00 in0.0 mm 0.00 in0.0 mm
06:30 AM 24.0°F-4.4°C -14.4°F-25.8°C 17% 1.7 mph SE2.7 kmh SE 3.4 mph5.5 kmh 30.30 in1026.1 mb 0.00 in0.0 mm 0.00 in0.0 mm 0.00 in0.0 mm
06:25 AM 24.1°F-4.4°C -14.3°F-25.7°C 17% 1.8 mph SE2.9 kmh SE 2.9 mph4.7 kmh 30.31 in1026.4 mb 0.00 in0.0 mm 0.00 in0.0 mm 0.00 in0.0 mm
06:20 AM 24.1°F-4.4°C -14.3°F-25.7°C 17% 1.9 mph SE3.1 kmh SE 3.1 mph5.0 kmh 30.31 in1026.4 mb 0.00 in0.0 mm 0.00 in0.0 mm 0.00 in0.0 mm
06:15 AM 24.1°F-4.4°C -14.3°F-25.7°C 17% 2.2 mph ESE3.5 kmh ESE 4.3 mph6.9 kmh 30.31 in1026.4 mb 0.00 in0.0 mm 0.00 in0.0 mm 0.00 in0.0 mm
06:10 AM 24.0°F-4.4°C -14.4°F-25.8°C 17% 2.1 mph SE3.4 kmh SE 4.3 mph6.9 kmh 30.31 in1026.4 mb 0.00 in0.0 mm 0.00 in0.0 mm 0.00 in0.0 mm
06:05 AM 23.9°F-4.5°C -14.5°F-25.8°C 17% 2.0 mph SSE3.2 kmh SSE 4.7 mph7.6 kmh 30.31 in1026.4 mb 0.00 in0.0 mm 0.00 in0.0 mm 0.00 in0.0 mm
06:00 AM 24.0°F-4.4°C -14.4°F-25.8°C 17% 1.8 mph SE2.9 kmh SE 2.9 mph4.7 kmh 30.31 in1026.4 mb 0.00 in0.0 mm 0.00 in0.0 mm 0.00 in0.0 mm
05:55 AM 24.2°F-4.3°C -14.3°F-25.7°C 17% 1.6 mph ESE2.6 kmh ESE 2.9 mph4.7 kmh 30.31 in1026.4 mb 0.00 in0.0 mm 0.00 in0.0 mm 0.00 in0.0 mm
05:50 AM 24.3°F-4.3°C -14.2°F-25.7°C 17% 1.4 mph ENE2.3 kmh ENE 2.9 mph4.7 kmh 30.31 in1026.4 mb 0.00 in0.0 mm 0.00 in0.0 mm 0.00 in0.0 mm
05:45 AM 24.4°F-4.2°C -14.1°F-25.6°C 17% 1.5 mph SE2.4 kmh SE 2.7 mph4.3 kmh 30.31 in1026.4 mb 0.00 in0.0 mm 0.00 in0.0 mm 0.00 in0.0 mm
05:40 AM 24.3°F-4.3°C -14.2°F-25.7°C 17% 1.5 mph SSE2.4 kmh SSE 3.6 mph5.8 kmh 30.31 in1026.4 mb 0.00 in0.0 mm 0.00 in0.0 mm 0.00 in0.0 mm
05:35 AM 24.3°F-4.3°C -14.2°F-25.7°C 17% 1.4 mph SE2.3 kmh SE 2.5 mph4.0 kmh 30.31 in1026.4 mb 0.00 in0.0 mm 0.00 in0.0 mm 0.00 in0.0 mm
05:30 AM 24.3°F-4.3°C -14.2°F-25.7°C 17% 1.9 mph SSE3.1 kmh SSE 3.1 mph5.0 kmh 30.31 in1026.4 mb 0.00 in0.0 mm 0.00 in0.0 mm 0.00 in0.0 mm
05:25 AM 24.4°F-4.2°C -14.1°F-25.6°C 17% 2.0 mph S3.2 kmh S 3.8 mph6.1 kmh 30.31 in1026.4 mb 0.00 in0.0 mm 0.00 in0.0 mm 0.00 in0.0 mm
05:20 AM 24.4°F-4.2°C -14.0°F-25.6°C 17% 2.4 mph SSE3.9 kmh SSE 4.0 mph6.4 kmh 30.31 in1026.4 mb 0.00 in0.0 mm 0.00 in0.0 mm 0.00 in0.0 mm
05:15 AM 24.6°F-4.1°C -13.9°F-25.5°C 17% 1.3 mph ESE2.1 kmh ESE 3.1 mph5.0 kmh 30.33 in1027.1 mb 0.00 in0.0 mm 0.00 in0.0 mm 0.00 in0.0 mm
05:10 AM 24.8°F-4.0°C -13.7°F-25.4°C 17% 1.0 mph ESE1.6 kmh ESE 2.0 mph3.2 kmh 30.34 in1027.4 mb 0.00 in0.0 mm 0.00 in0.0 mm 0.00 in0.0 mm
05:05 AM 24.9°F-3.9°C -14.2°F-25.7°C 17% 0.4 mph SE0.6 kmh SE 1.3 mph2.1 kmh 30.34 in1027.4 mb 0.00 in0.0 mm 0.00 in0.0 mm 0.00 in0.0 mm
05:00 AM 25.0°F-3.9°C -14.8°F-26.0°C 16% 0.4 mph SSE0.6 kmh SSE 1.6 mph2.6 kmh 30.34 in1027.4 mb 0.00 in0.0 mm 0.00 in0.0 mm 0.00 in0.0 mm
04:55 AM 25.2°F-3.8°C -14.6°F-25.9°C 16% Calm Calm -- 30.34 in1027.4 mb 0.00 in0.0 mm 0.00 in0.0 mm 0.00 in0.0 mm
04:50 AM 25.3°F-3.7°C -14.6°F-25.9°C 16% 0.2 mph SSE0.3 kmh SSE 2.0 mph3.2 kmh 30.34 in1027.4 mb 0.00 in0.0 mm 0.00 in0.0 mm 0.00 in0.0 mm
04:45 AM 25.3°F-3.7°C -14.5°F-25.8°C 16% Calm Calm -- 30.33 in1027.1 mb 0.00 in0.0 mm 0.00 in0.0 mm 0.00 in0.0 mm
04:40 AM 25.3°F-3.7°C -14.5°F-25.8°C 16% 0.1 mph S0.2 kmh S 1.1 mph1.8 kmh 30.31 in1026.4 mb 0.00 in0.0 mm 0.00 in0.0 mm 0.00 in0.0 mm
04:35 AM 25.3°F-3.7°C -14.5°F-25.8°C 16% 0.4 mph S0.6 kmh S 2.0 mph3.2 kmh 30.31 in1026.4 mb 0.00 in0.0 mm 0.00 in0.0 mm 0.00 in0.0 mm
04:30 AM 25.3°F-3.7°C -14.5°F-25.8°C 16% 1.4 mph ESE2.3 kmh ESE 2.5 mph4.0 kmh 30.31 in1026.4 mb 0.00 in0.0 mm 0.00 in0.0 mm 0.00 in0.0 mm
04:25 AM 25.0°F-3.9°C -14.7°F-25.9°C 16% 0.8 mph ESE1.3 kmh ESE 2.0 mph3.2 kmh 30.31 in1026.4 mb 0.00 in0.0 mm 0.00 in0.0 mm 0.00 in0.0 mm
04:20 AM 24.6°F-4.1°C -13.9°F-25.5°C 17% 0.7 mph SE1.1 kmh SE 2.2 mph3.5 kmh 30.31 in1026.4 mb 0.00 in0.0 mm 0.00 in0.0 mm 0.00 in0.0 mm
04:15 AM 24.4°F-4.2°C -14.1°F-25.6°C 17% 1.3 mph S2.1 kmh S 3.1 mph5.0 kmh 30.31 in1026.4 mb 0.00 in0.0 mm 0.00 in0.0 mm 0.00 in0.0 mm
04:10 AM 24.2°F-4.3°C -14.3°F-25.7°C 17% 2.3 mph SW3.7 kmh SW 4.3 mph6.9 kmh 30.31 in1026.4 mb 0.00 in0.0 mm 0.00 in0.0 mm 0.00 in0.0 mm
04:05 AM 24.3°F-4.3°C -14.2°F-25.7°C 17% 2.0 mph SW3.2 kmh SW 2.9 mph4.7 kmh 30.31 in1026.4 mb 0.00 in0.0 mm 0.00 in0.0 mm 0.00 in0.0 mm
04:00 AM 24.3°F-4.3°C -14.2°F-25.7°C 17% 1.1 mph SW1.8 kmh SW 2.7 mph4.3 kmh 30.31 in1026.4 mb 0.00 in0.0 mm 0.00 in0.0 mm 0.00 in0.0 mm
03:55 AM 24.1°F-4.4°C -14.3°F-25.7°C 17% Calm Calm -- 30.31 in1026.4 mb 0.00 in0.0 mm 0.00 in0.0 mm 0.00 in0.0 mm
03:50 AM 23.8°F-4.6°C -14.6°F-25.9°C 17% Calm Calm -- 30.31 in1026.4 mb 0.00 in0.0 mm 0.00 in0.0 mm 0.00 in0.0 mm
03:45 AM 23.6°F-4.7°C -14.7°F-25.9°C 17% Calm Calm -- 30.32 in1026.8 mb 0.00 in0.0 mm 0.00 in0.0 mm 0.00 in0.0 mm
03:40 AM 23.5°F-4.7°C -14.8°F-26.0°C 17% 0.5 mph SSE0.8 kmh SSE 1.6 mph2.6 kmh 30.32 in1026.8 mb 0.00 in0.0 mm 0.00 in0.0 mm 0.00 in0.0 mm
03:35 AM 23.4°F-4.8°C -14.9°F-26.1°C 17% 1.1 mph SSE1.8 kmh SSE 2.0 mph3.2 kmh 30.32 in1026.8 mb 0.00 in0.0 mm 0.00 in0.0 mm 0.00 in0.0 mm
03:30 AM 23.5°F-4.7°C -14.9°F-26.1°C 17% 0.9 mph SSE1.4 kmh SSE 2.0 mph3.2 kmh 30.32 in1026.8 mb 0.00 in0.0 mm 0.00 in0.0 mm 0.00 in0.0 mm
03:25 AM 23.7°F-4.6°C -14.7°F-25.9°C 17% 0.6 mph SSE1.0 kmh SSE 2.0 mph3.2 kmh 30.32 in1026.8 mb 0.00 in0.0 mm 0.00 in0.0 mm 0.00 in0.0 mm
03:20 AM 24.0°F-4.4°C -14.4°F-25.8°C 17% Calm Calm 0.9 mph1.4 kmh 30.31 in1026.4 mb 0.00 in0.0 mm 0.00 in0.0 mm 0.00 in0.0 mm
03:15 AM 24.2°F-4.3°C -14.3°F-25.7°C 17% Calm Calm -- 30.31 in1026.4 mb 0.00 in0.0 mm 0.00 in0.0 mm 0.00 in0.0 mm
03:10 AM 24.4°F-4.2°C -14.0°F-25.6°C 17% Calm Calm -- 30.31 in1026.4 mb 0.00 in0.0 mm 0.00 in0.0 mm 0.00 in0.0 mm
03:05 AM 24.6°F-4.1°C -13.9°F-25.5°C 17% Calm Calm 0.9 mph1.4 kmh 30.31 in1026.4 mb 0.00 in0.0 mm 0.00 in0.0 mm 0.00 in0.0 mm
03:00 AM 24.8°F-4.0°C -13.7°F-25.4°C 17% 0.8 mph ESE1.3 kmh ESE 2.0 mph3.2 kmh 30.31 in1026.4 mb 0.00 in0.0 mm 0.00 in0.0 mm 0.00 in0.0 mm
02:55 AM 24.9°F-3.9°C -14.4°F-25.8°C 16% 0.6 mph ESE1.0 kmh ESE 2.0 mph3.2 kmh 30.31 in1026.4 mb 0.00 in0.0 mm 0.00 in0.0 mm 0.00 in0.0 mm
02:50 AM 25.0°F-3.9°C -14.8°F-26.0°C 16% Calm Calm 0.9 mph1.4 kmh 30.31 in1026.4 mb 0.00 in0.0 mm 0.00 in0.0 mm 0.00 in0.0 mm
02:45 AM 25.0°F-3.9°C -14.8°F-26.0°C 16% 0.1 mph WSW0.2 kmh WSW 1.3 mph2.1 kmh 30.31 in1026.4 mb 0.00 in0.0 mm 0.00 in0.0 mm 0.00 in0.0 mm
02:40 AM 25.2°F-3.8°C -14.6°F-25.9°C 16% Calm Calm 1.3 mph2.1 kmh 30.31 in1026.4 mb 0.00 in0.0 mm 0.00 in0.0 mm 0.00 in0.0 mm
02:35 AM 25.2°F-3.8°C -14.6°F-25.9°C 16% Calm Calm -- 30.31 in1026.4 mb 0.00 in0.0 mm 0.00 in0.0 mm 0.00 in0.0 mm
02:30 AM 25.2°F-3.8°C -14.6°F-25.9°C 16% 0.1 mph S0.2 kmh S 1.3 mph2.1 kmh 30.31 in1026.4 mb 0.00 in0.0 mm 0.00 in0.0 mm 0.00 in0.0 mm
02:25 AM 25.3°F-3.7°C -14.5°F-25.8°C 16% 1.0 mph S1.6 kmh S 1.6 mph2.6 kmh 30.31 in1026.4 mb 0.00 in0.0 mm 0.00 in0.0 mm 0.00 in0.0 mm
02:20 AM 25.6°F-3.6°C -14.4°F-25.8°C 16% 0.8 mph SSE1.3 kmh SSE 2.2 mph3.5 kmh 30.31 in1026.4 mb 0.00 in0.0 mm 0.00 in0.0 mm 0.00 in0.0 mm
02:15 AM 25.9°F-3.4°C -14.0°F-25.6°C 16% Calm Calm -- 30.31 in1026.4 mb 0.00 in0.0 mm 0.00 in0.0 mm 0.00 in0.0 mm
02:10 AM 26.1°F-3.3°C -13.8°F-25.4°C 16% Calm Calm -- 30.31 in1026.4 mb 0.00 in0.0 mm 0.00 in0.0 mm 0.00 in0.0 mm
02:05 AM 26.3°F-3.2°C -13.7°F-25.4°C 16% Calm Calm -- 30.31 in1026.4 mb 0.00 in0.0 mm 0.00 in0.0 mm 0.00 in0.0 mm
02:00 AM 26.6°F-3.0°C -13.5°F-25.3°C 16% Calm Calm -- 30.32 in1026.8 mb 0.00 in0.0 mm 0.00 in0.0 mm 0.00 in0.0 mm
01:55 AM 26.9°F-2.8°C -13.2°F-25.1°C 16% 0.4 mph ESE0.6 kmh ESE 1.6 mph2.6 kmh 30.34 in1027.4 mb 0.00 in0.0 mm 0.00 in0.0 mm 0.00 in0.0 mm
01:50 AM 27.2°F-2.7°C -13.0°F-25.0°C 16% Calm Calm -- 30.34 in1027.4 mb 0.00 in0.0 mm 0.00 in0.0 mm 0.00 in0.0 mm
01:45 AM 27.5°F-2.5°C -12.8°F-24.9°C 16% 0.2 mph SE0.3 kmh SE 1.1 mph1.8 kmh 30.34 in1027.4 mb 0.00 in0.0 mm 0.00 in0.0 mm 0.00 in0.0 mm
01:40 AM 27.6°F-2.4°C -12.6°F-24.8°C 16% 1.2 mph NNE1.9 kmh NNE 2.5 mph4.0 kmh 30.34 in1027.4 mb 0.00 in0.0 mm 0.00 in0.0 mm 0.00 in0.0 mm
01:35 AM 27.7°F-2.4°C -12.6°F-24.8°C 16% 2.3 mph NNE3.7 kmh NNE 3.8 mph6.1 kmh 30.34 in1027.4 mb 0.00 in0.0 mm 0.00 in0.0 mm 0.00 in0.0 mm
01:30 AM 27.7°F-2.4°C -12.5°F-24.7°C 16% 1.9 mph NNE3.1 kmh NNE 3.8 mph6.1 kmh 30.34 in1027.4 mb 0.00 in0.0 mm 0.00 in0.0 mm 0.00 in0.0 mm
01:25 AM 27.9°F-2.3°C -12.4°F-24.7°C 16% 1.2 mph NE1.9 kmh NE 2.5 mph4.0 kmh 30.34 in1027.4 mb 0.00 in0.0 mm 0.00 in0.0 mm 0.00 in0.0 mm
01:20 AM 28.0°F-2.2°C -12.4°F-24.7°C 16% 1.6 mph NNE2.6 kmh NNE 2.9 mph4.7 kmh 30.34 in1027.4 mb 0.00 in0.0 mm 0.00 in0.0 mm 0.00 in0.0 mm
01:15 AM 28.2°F-2.1°C -12.2°F-24.6°C 16% 1.5 mph NNW2.4 kmh NNW 2.7 mph4.3 kmh 30.34 in1027.4 mb 0.00 in0.0 mm 0.00 in0.0 mm 0.00 in0.0 mm
01:10 AM 28.4°F-2.0°C -12.0°F-24.4°C 16% 2.1 mph NNW3.4 kmh NNW 3.1 mph5.0 kmh 30.34 in1027.4 mb 0.00 in0.0 mm 0.00 in0.0 mm 0.00 in0.0 mm
01:05 AM 28.4°F-2.0°C -12.0°F-24.4°C 16% 2.2 mph NNW3.5 kmh NNW 3.6 mph5.8 kmh 30.34 in1027.4 mb 0.00 in0.0 mm 0.00 in0.0 mm 0.00 in0.0 mm
01:00 AM 28.6°F-1.9°C -13.1°F-25.1°C 15% 1.5 mph N2.4 kmh N 2.9 mph4.7 kmh 30.34 in1027.4 mb 0.00 in0.0 mm 0.00 in0.0 mm 0.00 in0.0 mm
12:55 AM 28.8°F-1.8°C -13.0°F-25.0°C 15% 1.0 mph 1.6 kmh 1.6 mph2.6 kmh 30.34 in1027.4 mb 0.00 in0.0 mm 0.00 in0.0 mm 0.00 in0.0 mm
12:50 AM 29.0°F-1.7°C -12.8°F-24.9°C 15% 0.8 mph 1.3 kmh 1.6 mph2.6 kmh 30.34 in1027.4 mb 0.00 in0.0 mm 0.00 in0.0 mm 0.00 in0.0 mm
12:45 AM 29.3°F-1.5°C -12.5°F-24.7°C 15% 1.2 mph N1.9 kmh N 2.5 mph4.0 kmh 30.32 in1026.8 mb 0.00 in0.0 mm 0.00 in0.0 mm 0.00 in0.0 mm
12:40 AM 29.5°F-1.4°C -12.4°F-24.7°C 15% 2.3 mph NNE3.7 kmh NNE 3.6 mph5.8 kmh 30.30 in1026.1 mb 0.00 in0.0 mm 0.00 in0.0 mm 0.00 in0.0 mm
12:35 AM 29.7°F-1.3°C -12.2°F-24.6°C 15% 2.3 mph N3.7 kmh N 6.0 mph9.7 kmh 30.30 in1026.1 mb 0.00 in0.0 mm 0.00 in0.0 mm 0.00 in0.0 mm
12:30 AM 29.9°F-1.2°C -12.0°F-24.4°C 15% 2.6 mph N4.2 kmh N 4.7 mph7.6 kmh 30.30 in1026.1 mb 0.00 in0.0 mm 0.00 in0.0 mm 0.00 in0.0 mm
12:25 AM 30.0°F-1.1°C -12.0°F-24.4°C 15% 2.4 mph NNE3.9 kmh NNE 3.8 mph6.1 kmh 30.30 in1026.1 mb 0.00 in0.0 mm 0.00 in0.0 mm 0.00 in0.0 mm
12:20 AM 30.1°F-1.1°C -11.9°F-24.4°C 15% 2.6 mph NNE4.2 kmh NNE 4.9 mph7.9 kmh 30.30 in1026.1 mb 0.00 in0.0 mm 0.00 in0.0 mm 0.00 in0.0 mm
12:15 AM 30.3°F-0.9°C -11.7°F-24.3°C 15% 2.0 mph NE3.2 kmh NE 4.7 mph7.6 kmh 30.32 in1026.8 mb 0.00 in0.0 mm 0.00 in0.0 mm 0.00 in0.0 mm
12:10 AM 30.7°F-0.7°C -11.4°F-24.1°C 15% 2.5 mph NE4.0 kmh NE 6.5 mph10.5 kmh 30.33 in1027.1 mb 0.00 in0.0 mm 0.00 in0.0 mm 0.00 in0.0 mm
12:05 AM 30.9°F-0.6°C -11.3°F-24.1°C 15% 2.8 mph NNE4.5 kmh NNE 6.5 mph10.5 kmh 30.33 in1027.1 mb 0.00 in0.0 mm 0.00 in0.0 mm 0.00 in0.0 mm
12:00 AM 31.1°F-0.5°C -11.1°F-23.9°C 15% 4.4 mph NNE7.1 kmh NNE 8.1 mph13.0 kmh 30.33 in1027.1 mb 0.00 in0.0 mm 0.00 in0.0 mm 0.00 in0.0 mm